Time;durP1;ratioP1;P1;durP2;ratioP2;P2;SDS_P1;SDS_P2;PMS_P1;PMS_P2;Temp;Humidity;BMP_temperature;BMP_pressure;BME280_temperature;BME280_humidity;BME280_pressure;Samples;Min_cycle;Max_cycle;Signal;HPM_P1;HPM_P2
2024/02/19 00:01:11;;;;;;;15.37;5.77;;;;;9.30;102266.00;;;;9912732;29;20257;-83
2024/02/19 00:06:12;;;;;;;18.77;6.00;;;;;9.30;102277.00;;;;9912503;29;20250;-82
2024/02/19 00:11:14;;;;;;;19.23;6.23;;;;;9.30;102266.00;;;;9915122;29;20250;-82
2024/02/19 00:16:15;;;;;;;18.50;7.07;;;;;9.30;102278.00;;;;9898097;29;20283;-82
2024/02/19 00:21:17;;;;;;;18.77;5.27;;;;;9.30;102278.00;;;;9925682;29;20226;-83
2024/02/19 00:26:18;;;;;;;18.13;6.50;;;;;9.30;102277.00;;;;9931627;29;20227;-81
2024/02/19 00:31:19;;;;;;;19.70;7.00;;;;;9.30;102270.00;;;;9884613;29;20276;-83
2024/02/19 00:36:21;;;;;;;20.13;6.80;;;;;9.30;102276.00;;;;9925244;29;20235;-81
2024/02/19 00:41:22;;;;;;;19.17;6.07;;;;;9.40;102270.00;;;;9930709;29;20256;-82
2024/02/19 00:46:23;;;;;;;17.20;6.23;;;;;9.30;102273.00;;;;9921966;29;20322;-81
2024/02/19 00:51:24;;;;;;;14.20;6.80;;;;;9.40;102267.00;;;;9891428;29;20238;-82
2024/02/19 00:56:25;;;;;;;19.47;7.40;;;;;9.30;102262.00;;;;9894796;29;20227;-82
2024/02/19 01:01:27;;;;;;;22.10;7.67;;;;;9.30;102260.00;;;;9963947;29;20234;-80
2024/02/19 01:06:29;;;;;;;28.47;7.10;;;;;9.30;102271.00;;;;9934718;29;20678;-82
2024/02/19 01:11:30;;;;;;;15.10;6.50;;;;;9.30;102268.00;;;;9921524;29;20251;-80
2024/02/19 01:16:32;;;;;;;23.27;6.60;;;;;9.30;102281.00;;;;9925150;29;20258;-80
2024/02/19 01:21:33;;;;;;;19.90;7.27;;;;;9.30;102289.00;;;;9894110;29;20315;-81
2024/02/19 01:26:35;;;;;;;11.17;5.70;;;;;9.30;102282.00;;;;9910552;29;20226;-81
2024/02/19 01:31:36;;;;;;;21.17;6.70;;;;;9.30;102293.00;;;;9910559;29;20235;-81
2024/02/19 01:36:37;;;;;;;26.50;6.93;;;;;9.30;102300.00;;;;9896698;29;20223;-80
2024/02/19 01:41:38;;;;;;;21.27;6.00;;;;;9.30;102281.00;;;;9911352;29;20238;-82
2024/02/19 01:46:42;;;;;;;18.13;5.73;;;;;9.30;102289.00;;;;9896722;29;20231;-81
2024/02/19 01:51:44;;;;;;;21.40;6.57;;;;;9.30;102285.00;;;;9937359;29;20698;-81
2024/02/19 01:56:45;;;;;;;16.87;5.77;;;;;9.30;102295.00;;;;9908519;29;20222;-83
2024/02/19 02:01:47;;;;;;;19.10;6.03;;;;;9.30;102291.00;;;;9925151;29;20237;-78
2024/02/19 02:06:49;;;;;;;20.20;5.67;;;;;9.30;102291.00;;;;9911996;29;20235;-77
2024/02/19 02:11:50;;;;;;;20.23;5.60;;;;;9.30;102286.00;;;;9939174;29;20291;-76
2024/02/19 02:16:51;;;;;;;19.03;6.00;;;;;9.20;102286.00;;;;9910318;29;20263;-76
2024/02/19 02:21:53;;;;;;;15.87;4.83;;;;;9.20;102289.00;;;;9921895;29;20306;-76
2024/02/19 02:26:54;;;;;;;22.27;5.87;;;;;9.20;102289.00;;;;9928092;29;20935;-77
2024/02/19 02:31:55;;;;;;;21.67;6.20;;;;;9.20;102287.00;;;;9934502;29;20226;-76
2024/02/19 02:36:57;;;;;;;22.23;6.53;;;;;9.20;102288.00;;;;9945244;29;20239;-75
2024/02/19 02:41:58;;;;;;;13.67;5.43;;;;;9.20;102292.00;;;;9912567;29;20229;-77
2024/02/19 02:46:59;;;;;;;15.53;5.80;;;;;9.20;102283.00;;;;9913433;29;20230;-76
2024/02/19 02:52:01;;;;;;;21.43;6.00;;;;;9.10;102277.00;;;;9928500;29;20238;-75
2024/02/19 02:57:02;;;;;;;18.50;6.33;;;;;9.20;102279.00;;;;9928147;29;20246;-76
2024/02/19 03:02:03;;;;;;;17.27;6.90;;;;;9.10;102277.00;;;;9912856;29;20865;-77
2024/02/19 03:07:05;;;;;;;24.70;7.33;;;;;9.10;102280.00;;;;9914429;29;20299;-77
2024/02/19 03:12:06;;;;;;;18.97;6.50;;;;;9.10;102271.00;;;;9941204;29;20238;-75
2024/02/19 03:17:07;;;;;;;20.27;7.03;;;;;9.00;102265.00;;;;9929753;29;20226;-75
2024/02/19 03:22:08;;;;;;;22.00;7.47;;;;;9.10;102263.00;;;;9927053;29;20234;-76
2024/02/19 03:27:09;;;;;;;20.87;7.40;;;;;9.10;102270.00;;;;9914242;29;20227;-78
2024/02/19 03:32:10;;;;;;;26.10;9.03;;;;;9.10;102255.00;;;;9909553;29;20301;-79
2024/02/19 03:37:12;;;;;;;20.63;8.07;;;;;9.10;102267.00;;;;9923183;29;20258;-79
2024/02/19 03:42:13;;;;;;;26.37;8.20;;;;;9.00;102266.00;;;;9904114;29;20866;-77
2024/02/19 03:47:14;;;;;;;25.37;8.43;;;;;9.00;102250.00;;;;9920450;29;20318;-80
2024/02/19 03:52:17;;;;;;;27.10;8.53;;;;;9.00;102259.00;;;;9923366;29;20244;-77
2024/02/19 03:57:18;;;;;;;23.40;8.37;;;;;9.00;102268.00;;;;9926439;29;20265;-78
2024/02/19 04:02:19;;;;;;;24.27;8.30;;;;;9.00;102268.00;;;;9931093;29;20304;-78
2024/02/19 04:07:20;;;;;;;21.13;8.47;;;;;9.10;102268.00;;;;9909088;29;20341;-78
2024/02/19 04:12:21;;;;;;;28.10;7.90;;;;;9.10;102270.00;;;;9943815;29;20258;-78
2024/02/19 04:17:22;;;;;;;23.33;7.70;;;;;9.10;102284.00;;;;9925699;29;20269;-78
2024/02/19 04:22:24;;;;;;;25.60;8.10;;;;;9.10;102287.00;;;;9912888;29;20233;-79
2024/02/19 04:27:25;;;;;;;24.27;7.47;;;;;9.10;102294.00;;;;9908311;29;20226;-78
2024/02/19 04:32:26;;;;;;;24.30;9.17;;;;;9.10;102283.00;;;;9896040;29;20378;-79
2024/02/19 04:37:27;;;;;;;28.83;8.43;;;;;9.10;102281.00;;;;9925981;29;20318;-78
2024/02/19 04:42:28;;;;;;;28.70;9.13;;;;;9.10;102274.00;;;;9894776;29;20223;-78
2024/02/19 04:47:29;;;;;;;27.83;8.97;;;;;9.00;102278.00;;;;9938771;29;20317;-77
2024/02/19 04:52:31;;;;;;;29.40;9.63;;;;;9.00;102282.00;;;;9940854;29;20653;-80
2024/02/19 04:57:32;;;;;;;24.63;8.57;;;;;9.00;102270.00;;;;9925777;29;20230;-78
2024/02/19 05:02:33;;;;;;;22.27;8.63;;;;;8.90;102271.00;;;;9895450;29;20306;-78
2024/02/19 05:07:35;;;;;;;26.40;9.23;;;;;8.90;102273.00;;;;9910265;29;20306;-77
2024/02/19 05:12:36;;;;;;;32.30;10.30;;;;;8.90;102273.00;;;;9912560;29;20237;-78
2024/02/19 05:17:38;;;;;;;30.67;10.23;;;;;9.00;102270.00;;;;9910145;29;20318;-77
2024/02/19 05:22:39;;;;;;;29.47;12.27;;;;;9.00;102276.00;;;;9909510;29;20234;-78
2024/02/19 05:27:40;;;;;;;32.43;12.07;;;;;9.00;102269.00;;;;9910154;29;20239;-77
2024/02/19 05:32:41;;;;;;;28.50;12.10;;;;;9.00;102291.00;;;;9907511;29;20239;-77
2024/02/19 05:37:43;;;;;;;33.87;12.53;;;;;9.00;102287.00;;;;9922676;29;20801;-80
2024/02/19 05:42:44;;;;;;;35.33;12.33;;;;;9.00;102275.00;;;;9938455;29;20234;-78
2024/02/19 05:47:46;;;;;;;27.23;13.23;;;;;9.00;102286.00;;;;9928475;29;20279;-81
2024/02/19 05:52:47;;;;;;;37.30;13.80;;;;;9.00;102285.00;;;;9894744;29;20229;-79
2024/02/19 05:57:48;;;;;;;33.07;13.80;;;;;9.00;102280.00;;;;9930124;29;20245;-82
2024/02/19 06:02:50;;;;;;;37.53;13.23;;;;;9.00;102283.00;;;;9923845;29;20590;-80
2024/02/19 06:07:51;;;;;;;37.93;15.13;;;;;9.00;102278.00;;;;9911711;29;20232;-81
2024/02/19 06:12:52;;;;;;;28.63;13.50;;;;;9.00;102285.00;;;;9903052;29;20317;-80
2024/02/19 06:17:54;;;;;;;28.80;14.23;;;;;9.00;102292.00;;;;9944732;29;20235;-80
2024/02/19 06:22:55;;;;;;;33.53;14.00;;;;;9.00;102282.00;;;;9904681;29;20230;-80
2024/02/19 06:27:56;;;;;;;27.40;12.63;;;;;9.00;102285.00;;;;9919551;29;20233;-79
2024/02/19 06:32:58;;;;;;;29.03;13.73;;;;;8.90;102296.00;;;;9897372;29;20246;-80
2024/02/19 06:38:01;;;;;;;32.83;14.17;;;;;8.90;102288.00;;;;9928608;29;20334;-80
2024/02/19 06:43:02;;;;;;;31.53;13.93;;;;;8.90;102282.00;;;;9913730;29;20228;-80
2024/02/19 06:48:04;;;;;;;28.20;14.37;;;;;8.90;102290.00;;;;9929127;29;20226;-79
2024/02/19 06:53:08;;;;;;;31.83;14.63;;;;;8.90;102283.00;;;;9911404;29;20253;-80
2024/02/19 06:58:09;;;;;;;29.40;14.20;;;;;8.90;102284.00;;;;9914977;29;20241;-88
2024/02/19 07:03:10;;;;;;;31.87;15.27;;;;;8.90;102282.00;;;;9930632;29;20686;-88
2024/02/19 07:08:13;;;;;;;29.47;15.70;;;;;9.00;102275.00;;;;9904226;29;20697;-86
2024/02/19 07:13:14;;;;;;;39.67;15.97;;;;;9.00;102268.00;;;;9900574;29;20230;-87
2024/02/19 07:18:16;;;;;;;34.60;14.37;;;;;9.10;102279.00;;;;9916746;29;20238;-87
2024/02/19 07:23:17;;;;;;;27.93;14.70;;;;;9.20;102279.00;;;;9928758;29;20943;-89
2024/02/19 07:28:18;;;;;;;29.93;14.93;;;;;9.30;102276.00;;;;9945385;29;20255;-87
2024/02/19 07:33:20;;;;;;;28.73;14.30;;;;;9.30;102271.00;;;;9945195;29;20234;-86
2024/02/19 07:38:21;;;;;;;28.73;14.63;;;;;9.40;102249.00;;;;9899124;29;20226;-88
2024/02/19 07:43:22;;;;;;;30.17;13.93;;;;;9.50;102244.00;;;;9923284;29;20242;-88
2024/02/19 07:48:23;;;;;;;28.37;13.87;;;;;9.70;102257.00;;;;9900658;29;20258;-87
2024/02/19 07:53:24;;;;;;;26.90;12.03;;;;;10.00;102262.00;;;;9929552;29;20305;-88
2024/02/19 07:58:26;;;;;;;30.80;12.90;;;;;10.00;102256.00;;;;9943456;29;20218;-87
2024/02/19 08:03:27;;;;;;;26.23;14.17;;;;;9.90;102251.00;;;;9942812;29;20218;-86
2024/02/19 08:09:14;;;;;;;29.77;14.73;;;;;10.10;102253.00;;;;10622315;23;20437;31
2024/02/19 08:14:15;;;;;;;25.70;14.13;;;;;10.30;102241.00;;;;10140330;24;20240;-85
2024/02/19 08:19:17;;;;;;;32.70;16.87;;;;;10.40;102245.00;;;;10018116;29;20251;-86
2024/02/19 08:24:19;;;;;;;27.80;14.03;;;;;10.50;102238.00;;;;10020228;29;20228;-85
2024/02/19 08:29:20;;;;;;;26.33;14.37;;;;;11.20;102244.00;;;;10000251;29;20240;-88
2024/02/19 08:34:22;;;;;;;28.33;13.87;;;;;11.80;102264.00;;;;10017945;29;20239;-87
2024/02/19 08:39:23;;;;;;;30.30;13.00;;;;;12.30;102294.00;;;;10023322;29;20256;-86
2024/02/19 08:44:24;;;;;;;25.37;9.83;;;;;12.10;102300.00;;;;10018501;29;20228;-81
2024/02/19 08:49:25;;;;;;;29.67;10.80;;;;;11.80;102310.00;;;;10005426;29;20220;-85
2024/02/19 08:54:28;;;;;;;20.40;9.47;;;;;11.50;102293.00;;;;10018303;29;20259;-85
2024/02/19 08:59:29;;;;;;;23.43;10.43;;;;;11.20;102310.00;;;;10011328;29;20236;-85
2024/02/19 09:04:30;;;;;;;25.67;9.37;;;;;10.90;102298.00;;;;10019511;29;20233;-84
2024/02/19 09:09:32;;;;;;;19.47;9.60;;;;;10.80;102298.00;;;;9996833;29;20275;-84
2024/02/19 09:14:33;;;;;;;20.20;9.23;;;;;10.70;102294.00;;;;9990134;29;20260;-83
2024/02/19 09:19:34;;;;;;;26.77;10.07;;;;;10.90;102301.00;;;;9993781;29;20315;-77
2024/02/19 09:24:35;;;;;;;24.73;10.20;;;;;11.20;102319.00;;;;10012300;29;20252;-77
2024/02/19 09:29:36;;;;;;;22.60;9.50;;;;;11.30;102313.00;;;;10024514;29;20322;-77
2024/02/19 09:34:38;;;;;;;30.70;10.87;;;;;11.20;102309.00;;;;9996593;29;20592;-77
2024/02/19 09:39:40;;;;;;;28.97;13.03;;;;;11.10;102309.00;;;;10022550;29;20239;-77
2024/02/19 09:44:41;;;;;;;29.67;16.70;;;;;10.80;102322.00;;;;10011690;29;20239;-76
2024/02/19 09:49:43;;;;;;;29.80;16.70;;;;;11.00;102312.00;;;;10014963;29;20240;-77
2024/02/19 09:54:46;;;;;;;30.70;18.70;;;;;11.20;102310.00;;;;10001871;29;20232;-78
2024/02/19 09:59:48;;;;;;;30.37;19.03;;;;;11.10;102307.00;;;;10019853;29;20308;-76
2024/02/19 10:04:49;;;;;;;36.97;19.50;;;;;10.90;102299.00;;;;10007970;29;20821;-79
2024/02/19 10:09:51;;;;;;;33.63;18.53;;;;;10.70;102302.00;;;;10007645;29;20974;-77
2024/02/19 10:14:52;;;;;;;33.70;18.57;;;;;10.60;102301.00;;;;9992641;29;20837;-78
2024/02/19 10:20:06;;;;;;;26.67;15.40;;;;;10.80;102304.00;;;;9990496;29;20324;-77
2024/02/19 10:25:08;;;;;;;30.57;14.97;;;;;11.20;102307.00;;;;10025676;29;20225;-75
2024/02/19 10:30:12;;;;;;;28.33;14.40;;;;;11.10;102306.00;;;;9991634;29;20221;-76
2024/02/19 10:35:14;;;;;;;28.23;13.87;;;;;10.90;102305.00;;;;9989972;29;20608;-75
2024/02/19 10:40:18;;;;;;;24.53;15.17;;;;;10.70;102293.00;;;;9999213;29;20320;-76
2024/02/19 10:45:21;;;;;;;28.10;16.07;;;;;10.60;102287.00;;;;9989570;29;20234;-75
2024/02/19 10:50:22;;;;;;;32.87;16.73;;;;;10.50;102288.00;;;;9992144;29;20252;-75
2024/02/19 10:55:26;;;;;;;31.43;15.50;;;;;10.60;102278.00;;;;10009994;29;20255;-75
2024/02/19 11:00:45;;;;;;;32.67;17.23;;;;;10.70;102276.00;;;;9987621;29;21126;-79
2024/02/19 11:05:47;;;;;;;28.73;15.13;;;;;10.70;102263.00;;;;9990777;29;20319;-77
2024/02/19 11:10:52;;;;;;;30.00;16.67;;;;;10.80;102270.00;;;;10008413;29;20251;-79
2024/02/19 11:15:53;;;;;;;35.70;16.23;;;;;10.80;102263.00;;;;9990769;29;20347;-77
2024/02/19 11:21:02;;;;;;;29.67;16.03;;;;;10.70;102258.00;;;;10010240;29;20232;-74
2024/02/19 11:26:04;;;;;;;25.43;14.70;;;;;10.80;102238.00;;;;10006857;29;20233;-79
2024/02/19 11:31:05;;;;;;;25.47;13.30;;;;;10.80;102238.00;;;;10002057;29;20229;-77
2024/02/19 11:36:07;;;;;;;27.50;13.50;;;;;10.90;102235.00;;;;10000631;29;20584;-85
2024/02/19 11:41:10;;;;;;;21.47;13.17;;;;;10.90;102226.00;;;;10003491;29;20323;-84
2024/02/19 11:46:11;;;;;;;25.47;14.50;;;;;10.80;102240.00;;;;10018333;29;20229;-84
2024/02/19 11:51:13;;;;;;;25.20;13.40;;;;;10.90;102216.00;;;;10021016;29;20231;-86
2024/02/19 11:56:18;;;;;;;24.50;13.17;;;;;11.00;102217.00;;;;10010991;29;20684;-84
2024/02/19 12:01:20;;;;;;;21.00;12.33;;;;;10.90;102212.00;;;;10028749;29;20311;-83
2024/02/19 12:06:22;;;;;;;21.57;12.17;;;;;10.80;102205.00;;;;10005317;29;20228;-82
2024/02/19 12:11:23;;;;;;;18.33;11.30;;;;;10.70;102191.00;;;;10009571;29;20228;-85
2024/02/19 12:16:27;;;;;;;21.90;10.70;;;;;10.80;102183.00;;;;9992494;29;20890;-84
2024/02/19 12:21:29;;;;;;;19.13;10.27;;;;;10.90;102169.00;;;;10000358;29;20228;-84
2024/02/19 12:26:30;;;;;;;16.67;10.37;;;;;10.80;102156.00;;;;10003729;29;20248;-84
2024/02/19 12:31:32;;;;;;;18.67;9.17;;;;;10.70;102163.00;;;;9992132;29;20225;-84
2024/02/19 12:36:33;;;;;;;18.27;8.43;;;;;10.50;102152.00;;;;10014185;29;20236;-84
2024/02/19 12:41:34;;;;;;;15.90;8.87;;;;;10.40;102152.00;;;;9973653;29;20216;-84
2024/02/19 12:46:36;;;;;;;17.47;9.50;;;;;10.20;102146.00;;;;10005140;29;20229;-85
2024/02/19 12:51:37;;;;;;;18.47;9.10;;;;;10.00;102134.00;;;;10010133;29;20249;-86
2024/02/19 12:56:39;;;;;;;14.93;8.37;;;;;10.20;102118.00;;;;10010612;29;20581;-85
2024/02/19 13:01:40;;;;;;;17.10;9.20;;;;;10.00;102144.00;;;;9988641;29;20964;-86
2024/02/19 13:06:41;;;;;;;17.13;8.40;;;;;10.50;102134.00;;;;9986268;29;20224;-86
2024/02/19 13:11:43;;;;;;;16.37;7.70;;;;;11.10;102167.00;;;;10015594;29;21003;-86
2024/02/19 13:16:45;;;;;;;17.37;9.33;;;;;11.20;102158.00;;;;10009192;29;20225;-84
2024/02/19 13:21:53;;;;;;;15.60;8.70;;;;;11.40;102156.00;;;;10027364;29;20550;-85
2024/02/19 13:26:55;;;;;;;14.63;7.30;;;;;11.10;102156.00;;;;10014527;29;20247;-84
2024/02/19 13:31:56;;;;;;;18.27;7.37;;;;;11.10;102135.00;;;;10018969;29;20236;-84
2024/02/19 13:36:57;;;;;;;17.47;7.93;;;;;11.00;102119.00;;;;10004329;29;20235;-84
2024/02/19 13:41:59;;;;;;;13.00;6.87;;;;;10.90;102120.00;;;;10015402;29;20222;-85
2024/02/19 13:47:01;;;;;;;11.07;6.63;;;;;10.80;102114.00;;;;9990588;29;20256;-84
2024/02/19 13:52:02;;;;;;;12.23;7.17;;;;;10.70;102118.00;;;;10000791;29;20353;-85
2024/02/19 13:57:04;;;;;;;12.27;7.20;;;;;10.60;102114.00;;;;10025874;29;20233;-78
2024/02/19 14:02:05;;;;;;;12.23;7.20;;;;;10.60;102121.00;;;;10008226;29;20225;-78
2024/02/19 14:07:09;;;;;;;18.60;7.60;;;;;10.70;102127.00;;;;9993848;29;20232;-78
2024/02/19 14:12:10;;;;;;;10.97;6.07;;;;;10.70;102119.00;;;;10000048;29;20830;-78
2024/02/19 14:17:12;;;;;;;11.57;8.23;;;;;10.70;102114.00;;;;10009295;29;20241;-78
2024/02/19 14:22:14;;;;;;;14.57;7.13;;;;;10.70;102114.00;;;;10007475;29;20225;-79
2024/02/19 14:27:15;;;;;;;12.90;7.17;;;;;10.60;102111.00;;;;9991755;29;20239;-79
2024/02/19 14:32:16;;;;;;;12.97;7.10;;;;;10.70;102100.00;;;;9994709;29;20222;-79
2024/02/19 14:37:17;;;;;;;15.37;7.10;;;;;10.70;102090.00;;;;10005427;29;20237;-79
2024/02/19 14:42:18;;;;;;;13.97;6.60;;;;;10.70;102093.00;;;;10011944;29;20228;-79
2024/02/19 14:47:20;;;;;;;16.67;6.43;;;;;11.00;102087.00;;;;10023656;29;20229;-79
2024/02/19 14:52:21;;;;;;;10.13;5.00;;;;;11.20;102093.00;;;;10001896;29;20304;-80
2024/02/19 14:57:22;;;;;;;12.13;5.97;;;;;11.30;102088.00;;;;10008903;29;20217;-79
2024/02/19 15:02:23;;;;;;;13.67;5.63;;;;;11.10;102095.00;;;;10007789;29;20299;-79
2024/02/19 15:07:25;;;;;;;13.13;5.07;;;;;10.90;102099.00;;;;10027433;29;20220;-80
2024/02/19 15:12:27;;;;;;;15.37;5.60;;;;;10.70;102093.00;;;;10002321;29;20221;-81
2024/02/19 15:17:28;;;;;;;13.73;6.03;;;;;10.50;102098.00;;;;10000860;29;20225;-81
2024/02/19 15:22:29;;;;;;;12.93;5.13;;;;;10.30;102088.00;;;;10006563;29;20224;-83
2024/02/19 15:27:31;;;;;;;14.43;6.17;;;;;10.20;102106.00;;;;10015449;29;20897;-83
2024/02/19 15:32:33;;;;;;;23.07;5.70;;;;;10.00;102106.00;;;;9994940;29;20312;-82
2024/02/19 15:37:34;;;;;;;17.53;5.47;;;;;10.00;102107.00;;;;10016606;29;20229;-83
2024/02/19 15:42:37;;;;;;;17.63;6.37;;;;;9.90;102111.00;;;;10006483;29;20225;-83
2024/02/19 15:47:38;;;;;;;14.77;6.03;;;;;9.90;102105.00;;;;10010938;29;20229;-82
2024/02/19 15:52:39;;;;;;;14.83;6.07;;;;;9.80;102110.00;;;;10014513;29;20213;-84
2024/02/19 15:57:40;;;;;;;12.70;5.63;;;;;9.80;102125.00;;;;10006715;29;20255;-84
2024/02/19 16:02:43;;;;;;;14.70;6.77;;;;;9.60;102126.00;;;;9996928;29;20282;-82
2024/02/19 16:07:44;;;;;;;10.83;5.60;;;;;9.70;102118.00;;;;10022231;29;20301;-85
2024/02/19 16:12:45;;;;;;;10.77;4.90;;;;;9.60;102101.00;;;;10035048;29;20700;-84
2024/02/19 16:17:46;;;;;;;9.97;4.77;;;;;9.60;102109.00;;;;10021132;29;20259;-79
2024/02/19 16:22:50;;;;;;;12.97;6.83;;;;;9.60;102115.00;;;;9996808;29;20274;-80
2024/02/19 16:27:51;;;;;;;11.63;5.70;;;;;9.50;102136.00;;;;9993585;29;20292;-78
2024/02/19 16:32:52;;;;;;;12.20;6.10;;;;;9.40;102122.00;;;;9992124;29;20230;-79
2024/02/19 16:37:54;;;;;;;16.13;6.97;;;;;9.40;102143.00;;;;9992524;29;20874;-79
2024/02/19 16:42:56;;;;;;;16.30;7.37;;;;;9.30;102127.00;;;;9999003;29;20233;-78
2024/02/19 16:47:57;;;;;;;14.87;7.63;;;;;9.20;102118.00;;;;9992446;29;20871;-79
2024/02/19 16:52:59;;;;;;;14.33;6.90;;;;;9.10;102129.00;;;;9991045;29;20231;-78
2024/02/19 16:58:00;;;;;;;18.83;6.53;;;;;9.00;102129.00;;;;9978550;29;20327;-79
2024/02/19 17:03:02;;;;;;;14.90;7.57;;;;;8.90;102145.00;;;;9981982;29;20894;-79
2024/02/19 17:08:04;;;;;;;15.57;6.60;;;;;8.80;102153.00;;;;9982356;29;20232;-79
2024/02/19 17:13:06;;;;;;;19.97;6.50;;;;;8.80;102153.00;;;;9982957;29;20671;-79
2024/02/19 17:18:07;;;;;;;16.20;6.23;;;;;8.90;102156.00;;;;10025664;29;20224;-79
2024/02/19 17:23:13;;;;;;;19.13;6.00;;;;;8.90;102164.00;;;;10013311;29;20677;-79
2024/02/19 17:28:15;;;;;;;17.33;6.17;;;;;8.90;102173.00;;;;10028283;29;20604;-85
2024/02/19 17:33:16;;;;;;;19.83;6.57;;;;;9.00;102185.00;;;;10023487;29;20241;-85
2024/02/19 17:38:17;;;;;;;19.53;7.07;;;;;8.90;102189.00;;;;10019864;29;20239;-85
2024/02/19 17:43:18;;;;;;;17.27;5.90;;;;;8.90;102194.00;;;;9999737;29;20229;-85
2024/02/19 17:48:21;;;;;;;17.80;5.47;;;;;8.90;102193.00;;;;10022095;29;20220;-85
2024/02/19 17:53:22;;;;;;;18.30;7.37;;;;;8.90;102194.00;;;;10028040;29;20251;-86
2024/02/19 17:58:24;;;;;;;22.00;7.97;;;;;8.90;102197.00;;;;10013225;29;20316;-85
2024/02/19 18:03:25;;;;;;;20.50;7.03;;;;;8.90;102209.00;;;;10016406;29;20261;-85
2024/02/19 18:08:27;;;;;;;21.20;7.23;;;;;8.70;102204.00;;;;10033433;29;20224;-85
2024/02/19 18:13:28;;;;;;;13.93;6.83;;;;;8.60;102216.00;;;;10042941;29;20260;-85
2024/02/19 18:18:29;;;;;;;17.27;7.67;;;;;8.50;102207.00;;;;10035270;29;20292;-85
2024/02/19 18:23:31;;;;;;;24.83;7.57;;;;;8.40;102213.00;;;;10014600;29;20235;-85
2024/02/19 18:28:34;;;;;;;21.77;7.37;;;;;8.30;102216.00;;;;10026896;29;20256;-85
2024/02/19 18:33:39;;;;;;;20.77;8.43;;;;;8.20;102218.00;;;;10039174;29;20232;-85
2024/02/19 18:38:42;;;;;;;17.67;6.70;;;;;8.10;102224.00;;;;9998075;29;20232;-81
2024/02/19 18:43:44;;;;;;;18.63;7.87;;;;;8.00;102228.00;;;;10000921;29;20796;-81
2024/02/19 18:48:45;;;;;;;19.57;7.57;;;;;7.90;102238.00;;;;9995055;29;20224;-81
2024/02/19 18:53:46;;;;;;;16.53;7.37;;;;;7.90;102243.00;;;;10007521;29;20226;-81
2024/02/19 18:58:48;;;;;;;24.90;9.03;;;;;7.90;102248.00;;;;10017984;29;20242;-80
2024/02/19 19:03:49;;;;;;;18.47;9.13;;;;;8.00;102244.00;;;;10045463;29;20360;-80
2024/02/19 19:08:50;;;;;;;22.03;8.50;;;;;8.00;102246.00;;;;10003826;29;20307;-80
2024/02/19 19:13:51;;;;;;;23.03;8.53;;;;;8.20;102259.00;;;;10013242;29;20261;-80
2024/02/19 19:18:52;;;;;;;21.47;9.47;;;;;8.30;102266.00;;;;10000252;29;20243;-81
2024/02/19 19:23:54;;;;;;;21.63;9.63;;;;;8.40;102260.00;;;;10016567;29;20228;-80
2024/02/19 19:28:56;;;;;;;27.20;8.97;;;;;8.40;102251.00;;;;9995179;29;20256;-83
2024/02/19 19:33:57;;;;;;;25.03;7.97;;;;;8.50;102269.00;;;;10001628;29;20252;-81
2024/02/19 19:38:59;;;;;;;30.93;8.47;;;;;8.50;102269.00;;;;9986050;29;20951;-81
2024/02/19 19:44:05;;;;;;;22.33;8.30;;;;;8.60;102268.00;;;;10026488;29;20228;-81
2024/02/19 19:49:06;;;;;;;19.07;7.23;;;;;8.50;102271.00;;;;9968504;29;20244;-81
2024/02/19 19:54:07;;;;;;;20.63;7.23;;;;;8.40;102273.00;;;;9993995;29;20229;-82
2024/02/19 19:59:08;;;;;;;32.47;8.43;;;;;8.30;102284.00;;;;9986194;29;20237;-81
2024/02/19 20:04:10;;;;;;;23.17;7.23;;;;;8.30;102267.00;;;;9983581;29;20227;-80
2024/02/19 20:09:11;;;;;;;28.07;9.10;;;;;8.30;102270.00;;;;10009485;29;20225;-80
2024/02/19 20:14:12;;;;;;;28.50;9.13;;;;;8.40;102256.00;;;;9970779;29;20236;-82
2024/02/19 20:19:13;;;;;;;18.40;8.07;;;;;8.40;102268.00;;;;10005456;29;20256;-81
2024/02/19 20:24:15;;;;;;;24.77;9.10;;;;;8.40;102274.00;;;;10022357;29;20229;-81
2024/02/19 20:29:16;;;;;;;28.13;9.07;;;;;8.30;102273.00;;;;10008433;29;20265;-81
2024/02/19 20:34:17;;;;;;;27.87;8.90;;;;;8.40;102272.00;;;;9997748;29;20243;-81
2024/02/19 20:39:18;;;;;;;23.27;8.47;;;;;8.40;102275.00;;;;10011535;29;20280;-81
2024/02/19 20:44:19;;;;;;;26.37;8.07;;;;;8.40;102277.00;;;;9990304;29;20274;-80
2024/02/19 20:49:21;;;;;;;20.33;8.00;;;;;8.30;102287.00;;;;9996650;29;20790;-81
2024/02/19 20:54:23;;;;;;;33.70;9.17;;;;;8.20;102283.00;;;;9994211;29;20614;-81
2024/02/19 20:59:24;;;;;;;25.30;9.17;;;;;8.10;102282.00;;;;10001584;29;20232;-77
2024/02/19 21:04:25;;;;;;;29.07;9.17;;;;;8.00;102285.00;;;;9989019;29;20236;-76
2024/02/19 21:09:26;;;;;;;28.40;9.37;;;;;7.80;102283.00;;;;10025593;29;20228;-75
2024/02/19 21:14:27;;;;;;;27.90;9.67;;;;;7.70;102296.00;;;;10010343;29;20231;-77
2024/02/19 21:19:28;;;;;;;27.67;9.60;;;;;7.80;102300.00;;;;9980686;29;20232;-76
2024/02/19 21:24:30;;;;;;;35.83;11.13;;;;;7.80;102299.00;;;;9990739;29;20702;-77
2024/02/19 21:29:31;;;;;;;31.33;11.97;;;;;7.90;102304.00;;;;10003748;29;20311;-75
2024/02/19 21:34:32;;;;;;;32.10;11.00;;;;;7.80;102306.00;;;;10031640;29;20232;-76
2024/02/19 21:39:33;;;;;;;28.57;10.97;;;;;7.80;102314.00;;;;9983235;29;21009;-76
2024/02/19 21:44:35;;;;;;;26.97;11.10;;;;;7.80;102314.00;;;;10002894;29;20228;-77
2024/02/19 21:49:36;;;;;;;36.27;12.37;;;;;7.90;102315.00;;;;10004495;29;20236;-75
2024/02/19 21:54:37;;;;;;;28.07;10.27;;;;;7.90;102313.00;;;;10028874;29;20577;-75
2024/02/19 21:59:39;;;;;;;27.80;10.30;;;;;7.80;102304.00;;;;9991756;29;20245;-75
2024/02/19 22:04:40;;;;;;;25.87;10.50;;;;;7.70;102313.00;;;;10005444;29;20232;-78
2024/02/19 22:09:42;;;;;;;31.40;9.97;;;;;7.60;102314.00;;;;10012280;29;20240;-82
2024/02/19 22:14:43;;;;;;;29.97;10.17;;;;;7.70;102311.00;;;;9994332;29;20228;-81
2024/02/19 22:19:44;;;;;;;27.90;9.90;;;;;7.70;102315.00;;;;10003946;29;20324;-82
2024/02/19 22:24:45;;;;;;;25.40;10.50;;;;;7.60;102316.00;;;;10002760;29;20688;-81
2024/02/19 22:29:46;;;;;;;26.77;10.30;;;;;7.60;102330.00;;;;9997869;29;20227;-82
2024/02/19 22:34:48;;;;;;;26.43;10.40;;;;;7.50;102328.00;;;;9995503;29;20303;-82
2024/02/19 22:39:49;;;;;;;30.77;10.00;;;;;7.40;102332.00;;;;10002082;29;20237;-82
2024/02/19 22:44:51;;;;;;;26.47;10.80;;;;;7.50;102323.00;;;;9989506;29;20236;-82
2024/02/19 22:49:52;;;;;;;38.87;10.57;;;;;7.50;102324.00;;;;10015762;29;20229;-81
2024/02/19 22:54:53;;;;;;;22.73;9.73;;;;;7.40;102332.00;;;;9990824;29;20225;-82
2024/02/19 22:59:54;;;;;;;33.47;9.53;;;;;7.30;102338.00;;;;10006743;29;20236;-82
2024/02/19 23:04:55;;;;;;;29.30;9.80;;;;;7.20;102336.00;;;;9983998;29;20232;-82
2024/02/19 23:09:57;;;;;;;23.93;10.20;;;;;7.20;102340.00;;;;9992453;29;20233;-81
2024/02/19 23:14:58;;;;;;;23.30;9.23;;;;;7.30;102352.00;;;;10030547;29;21853;-81
2024/02/19 23:19:59;;;;;;;24.87;9.53;;;;;7.30;102342.00;;;;10035107;29;20239;-80
2024/02/19 23:25:02;;;;;;;23.47;8.80;;;;;7.40;102341.00;;;;10000141;29;20803;-80
2024/02/19 23:30:04;;;;;;;28.20;9.70;;;;;7.50;102347.00;;;;9999074;29;20236;-81
2024/02/19 23:35:06;;;;;;;30.57;8.73;;;;;7.50;102351.00;;;;10006645;29;20308;-78
2024/02/19 23:40:16;;;;;;;25.60;9.53;;;;;7.50;102347.00;;;;10015291;29;20220;-82
2024/02/19 23:45:18;;;;;;;36.63;9.90;;;;;7.40;102353.00;;;;10001995;29;20244;-82
2024/02/19 23:50:19;;;;;;;23.20;8.93;;;;;7.40;102368.00;;;;9986511;29;20232;-82
2024/02/19 23:55:20;;;;;;;31.03;9.10;;;;;7.40;102364.00;;;;9994627;29;20232;-82
